Terminal Aerodrome Forecast
Issued by NWS

Home | Current Version | Previous Version | Text Only | Print | Product List | Glossary On
Versions: 1 2 3 4 5 6 7 8 9 10 11 12 13 14 15 16 17 18 19 20 21 22 23 24 25 26 27 28 29 30
000
FTUS41 KBOX 161131
TAFACK
TAF
KACK 161131Z 1612/1712 13006KT P6SM SCT050
     FM161700 19010KT P6SM BKN060 BKN150
     FM162300 24006KT P6SM BKN060
     FM170000 25005KT P6SM SCT060
     FM170700 31005KT P6SM SCT250
     FM171100 01006KT P6SM SCT250=

USA.gov is the U.S. government's official web portal to all federal, state and local government web resources and services.